createdAt,value
2022-08-31T00:00:55.624Z,1013.60
2022-08-31T00:01:55.964Z,1013.54
2022-08-31T00:02:56.250Z,1013.54
2022-08-31T00:03:56.593Z,1013.52
2022-08-31T00:04:56.882Z,1013.54
2022-08-31T00:05:57.143Z,1013.56
2022-08-31T00:06:57.443Z,1013.57
2022-08-31T00:07:57.751Z,1013.55
2022-08-31T00:08:58.000Z,1013.55
2022-08-31T00:09:58.301Z,1013.57
2022-08-31T00:10:58.581Z,1013.56
2022-08-31T00:11:58.884Z,1013.57
2022-08-31T00:12:59.194Z,1013.53
2022-08-31T00:13:59.451Z,1013.53
2022-08-31T00:14:59.695Z,1013.49
2022-08-31T00:16:00.050Z,1013.50
2022-08-31T00:17:00.210Z,1013.50
2022-08-31T00:18:00.524Z,1013.46
2022-08-31T00:19:00.811Z,1013.48
2022-08-31T00:20:01.105Z,1013.42
2022-08-31T00:21:01.394Z,1013.49
2022-08-31T00:22:01.671Z,1013.42
2022-08-31T00:23:01.995Z,1013.46
2022-08-31T00:24:02.242Z,1013.47
2022-08-31T00:25:02.545Z,1013.51
2022-08-31T00:26:02.833Z,1013.47
2022-08-31T00:27:03.123Z,1013.53
2022-08-31T00:28:03.446Z,1013.54
2022-08-31T00:29:03.693Z,1013.51
2022-08-31T00:30:03.996Z,1013.52
2022-08-31T00:31:04.295Z,1013.54
2022-08-31T00:32:04.563Z,1013.57
2022-08-31T00:33:04.836Z,1013.57
2022-08-31T00:34:05.095Z,1013.59
2022-08-31T00:35:05.386Z,1013.67
2022-08-31T00:36:05.672Z,1013.61
2022-08-31T00:37:05.977Z,1013.62
2022-08-31T00:38:06.273Z,1013.68
2022-08-31T00:39:06.564Z,1013.67
2022-08-31T00:40:06.907Z,1013.70
2022-08-31T00:41:07.153Z,1013.69
2022-08-31T00:42:07.449Z,1013.70
2022-08-31T00:43:07.752Z,1013.72
2022-08-31T00:44:08.057Z,1013.73
2022-08-31T00:45:08.376Z,1013.69
2022-08-31T00:46:08.659Z,1013.72
2022-08-31T00:47:08.917Z,1013.74
2022-08-31T00:48:09.225Z,1013.75
2022-08-31T00:49:09.512Z,1013.74
2022-08-31T00:50:09.794Z,1013.73
2022-08-31T00:51:10.098Z,1013.80
2022-08-31T00:52:10.378Z,1013.79
2022-08-31T00:53:10.774Z,1013.83
2022-08-31T00:54:11.008Z,1013.81
2022-08-31T00:55:11.308Z,1013.79
2022-08-31T00:56:11.617Z,1013.84
2022-08-31T00:57:11.909Z,1013.83
2022-08-31T00:58:12.225Z,1013.89
2022-08-31T00:59:12.489Z,1013.90
2022-08-31T01:00:12.785Z,1013.91
2022-08-31T01:01:13.116Z,1013.90
2022-08-31T01:02:13.424Z,1013.94
2022-08-31T01:03:13.765Z,1013.91
2022-08-31T01:04:14.019Z,1013.91
2022-08-31T01:05:14.340Z,1013.93
2022-08-31T01:06:14.626Z,1013.92
2022-08-31T01:07:14.929Z,1013.93
2022-08-31T01:08:15.245Z,1013.91
2022-08-31T01:09:15.520Z,1013.89
2022-08-31T01:10:15.820Z,1013.94
2022-08-31T01:11:16.138Z,1013.92
2022-08-31T01:12:16.437Z,1013.91
2022-08-31T01:13:16.841Z,1013.94
2022-08-31T01:14:17.028Z,1013.92
2022-08-31T01:15:17.328Z,1013.96
2022-08-31T01:16:17.726Z,1014.00
2022-08-31T01:17:17.981Z,1013.97
2022-08-31T01:18:18.310Z,1013.98
2022-08-31T01:19:18.582Z,1014.03
2022-08-31T01:20:18.888Z,1014.07
2022-08-31T01:21:19.208Z,1014.10
2022-08-31T01:22:19.508Z,1014.08
2022-08-31T01:23:19.942Z,1014.09
2022-08-31T01:24:20.121Z,1014.07
2022-08-31T01:25:20.428Z,1014.07
2022-08-31T01:26:20.754Z,1014.07
2022-08-31T01:27:21.049Z,1014.09
2022-08-31T01:28:21.369Z,1014.06
2022-08-31T01:29:21.670Z,1014.02
2022-08-31T01:30:21.979Z,1014.03
2022-08-31T01:31:22.340Z,1014.02
2022-08-31T01:32:22.603Z,1014.04
2022-08-31T01:33:22.943Z,1014.09
2022-08-31T01:34:23.221Z,1014.09
2022-08-31T01:35:23.518Z,1014.08
2022-08-31T01:36:23.820Z,1014.10
2022-08-31T01:37:29.527Z,1014.12
2022-08-31T01:38:25.386Z,1014.15
2022-08-31T01:39:24.603Z,1014.12
2022-08-31T01:40:24.985Z,1014.08
2022-08-31T01:41:25.130Z,1014.08
2022-08-31T01:42:33.453Z,1014.08
2022-08-31T01:43:26.733Z,1014.10
2022-08-31T01:44:25.944Z,1014.09
2022-08-31T01:45:26.243Z,1014.10
2022-08-31T01:46:26.571Z,1014.16
2022-08-31T01:47:26.853Z,1014.15
2022-08-31T01:48:27.185Z,1014.11
2022-08-31T01:49:27.476Z,1014.10
2022-08-31T01:50:27.740Z,1014.11
2022-08-31T01:51:28.043Z,1014.04
2022-08-31T01:52:28.362Z,1014.07
2022-08-31T01:53:28.681Z,1014.02
2022-08-31T01:54:28.993Z,1014.05
2022-08-31T01:55:29.305Z,1014.06
2022-08-31T01:56:29.609Z,1014.04
2022-08-31T01:57:33.666Z,1014.07
2022-08-31T01:58:30.265Z,1014.05
2022-08-31T01:59:30.523Z,1014.09
2022-08-31T02:00:30.870Z,1014.09
2022-08-31T02:01:33.573Z,1014.07
2022-08-31T02:02:31.454Z,1014.05
2022-08-31T02:03:31.741Z,1014.04
2022-08-31T02:04:32.059Z,1014.07
2022-08-31T02:05:32.365Z,1014.04
2022-08-31T02:06:32.670Z,1014.06
2022-08-31T02:07:32.985Z,1014.02
2022-08-31T02:08:33.302Z,1013.99
2022-08-31T02:09:33.606Z,1014.02
2022-08-31T02:10:33.923Z,1013.99
2022-08-31T02:11:34.231Z,1014.01
2022-08-31T02:12:34.546Z,1013.92
2022-08-31T02:13:34.885Z,1013.98
2022-08-31T02:14:35.158Z,1013.96
2022-08-31T02:15:35.442Z,1013.97
2022-08-31T02:16:35.803Z,1013.97
2022-08-31T02:17:36.063Z,1013.96
2022-08-31T02:18:36.339Z,1013.96
2022-08-31T02:19:36.594Z,1013.98
2022-08-31T02:20:36.885Z,1013.96
2022-08-31T02:21:37.190Z,1013.94
2022-08-31T02:22:37.485Z,1013.91
2022-08-31T02:23:37.796Z,1013.91
2022-08-31T02:24:38.066Z,1013.89
2022-08-31T02:25:38.366Z,1013.91
2022-08-31T02:26:38.648Z,1013.92
2022-08-31T02:27:38.965Z,1013.92
2022-08-31T02:28:39.281Z,1013.92
2022-08-31T02:29:39.586Z,1013.91
2022-08-31T02:30:39.899Z,1013.93
2022-08-31T02:31:40.272Z,1013.92
2022-08-31T02:32:40.536Z,1013.93
2022-08-31T02:33:40.855Z,1013.96
2022-08-31T02:34:41.196Z,1013.95
2022-08-31T02:35:41.466Z,1013.97
2022-08-31T02:36:41.788Z,1013.98
2022-08-31T02:37:42.099Z,1014.00
2022-08-31T02:38:42.416Z,1014.00
2022-08-31T02:39:42.726Z,1014.04
2022-08-31T02:40:43.104Z,1014.02
2022-08-31T02:41:43.321Z,1014.07
2022-08-31T02:42:53.390Z,1014.07
2022-08-31T02:43:44.903Z,1014.06
2022-08-31T02:44:44.197Z,1014.12
2022-08-31T02:45:44.508Z,1014.09
2022-08-31T02:46:45.821Z,1014.10
2022-08-31T02:47:45.030Z,1014.14
2022-08-31T02:48:45.346Z,1014.15
2022-08-31T02:49:45.647Z,1014.11
2022-08-31T02:50:45.958Z,1014.13
2022-08-31T02:51:46.261Z,1014.10
2022-08-31T02:52:46.571Z,1014.11
2022-08-31T02:53:46.902Z,1014.11
2022-08-31T02:54:47.180Z,1014.05
2022-08-31T02:55:47.488Z,1014.10
2022-08-31T02:56:47.792Z,1014.10
2022-08-31T02:57:48.102Z,1014.10
2022-08-31T02:58:48.409Z,1014.08
2022-08-31T02:59:48.732Z,1014.15
2022-08-31T03:00:49.050Z,1014.15
2022-08-31T03:01:49.399Z,1014.13
2022-08-31T03:02:49.734Z,1014.15
2022-08-31T03:03:49.951Z,1014.11
2022-08-31T03:04:50.208Z,1014.15
2022-08-31T03:05:50.514Z,1014.15
2022-08-31T03:06:50.830Z,1014.15
2022-08-31T03:07:51.123Z,1014.17
2022-08-31T03:08:51.442Z,1014.17
2022-08-31T03:09:51.694Z,1014.16
2022-08-31T03:10:52.013Z,1014.17
2022-08-31T03:11:52.309Z,1014.22
2022-08-31T03:12:52.620Z,1014.14
2022-08-31T03:13:57.824Z,1014.22
2022-08-31T03:14:54.200Z,1014.22
2022-08-31T03:15:53.552Z,1014.19
2022-08-31T03:16:53.843Z,1014.19
2022-08-31T03:17:54.148Z,1014.23
2022-08-31T03:18:54.474Z,1014.21
2022-08-31T03:19:54.754Z,1014.19
2022-08-31T03:20:55.064Z,1014.22
2022-08-31T03:21:56.082Z,1014.23
2022-08-31T03:22:55.681Z,1014.24
2022-08-31T03:23:56.042Z,1014.22
2022-08-31T03:24:56.322Z,1014.20
2022-08-31T03:25:56.611Z,1014.19
2022-08-31T03:26:56.921Z,1014.19
2022-08-31T03:27:57.231Z,1014.20
2022-08-31T03:28:57.555Z,1014.20
2022-08-31T03:29:57.875Z,1014.17
2022-08-31T03:30:58.237Z,1014.13
2022-08-31T03:31:58.498Z,1014.15
2022-08-31T03:33:02.373Z,1014.08
2022-08-31T03:33:58.992Z,1014.09
2022-08-31T03:34:59.255Z,1014.09
2022-08-31T03:35:59.576Z,1014.13
2022-08-31T03:36:59.884Z,1014.06
2022-08-31T03:38:00.183Z,1014.06
2022-08-31T03:39:00.526Z,1014.10
2022-08-31T03:40:00.826Z,1014.13
2022-08-31T03:41:01.108Z,1014.14
2022-08-31T03:42:01.413Z,1014.16
2022-08-31T03:43:01.693Z,1014.20
2022-08-31T03:44:02.042Z,1014.22
2022-08-31T03:45:02.314Z,1014.23
2022-08-31T03:46:02.724Z,1014.25
2022-08-31T03:47:03.860Z,1014.25
2022-08-31T03:48:03.197Z,1014.27
2022-08-31T03:49:03.494Z,1014.27
2022-08-31T03:50:03.794Z,1014.32
2022-08-31T03:51:04.104Z,1014.31
2022-08-31T03:52:04.414Z,1014.29
2022-08-31T03:53:04.738Z,1014.28
2022-08-31T03:54:05.068Z,1014.28
2022-08-31T03:55:05.324Z,1014.27
2022-08-31T03:56:05.614Z,1014.30
2022-08-31T03:57:05.926Z,1014.27
2022-08-31T03:58:06.239Z,1014.24
2022-08-31T03:59:06.567Z,1014.27
2022-08-31T04:00:06.832Z,1014.31
2022-08-31T04:01:07.177Z,1014.32
2022-08-31T04:02:07.512Z,1014.29
2022-08-31T04:03:07.808Z,1014.25
2022-08-31T04:04:08.086Z,1014.28
2022-08-31T04:05:08.346Z,1014.28
2022-08-31T04:06:08.666Z,1014.30
2022-08-31T04:07:08.999Z,1014.24
2022-08-31T04:08:09.329Z,1014.21
2022-08-31T04:09:09.656Z,1014.22
2022-08-31T04:10:09.989Z,1014.17
2022-08-31T04:11:10.328Z,1014.23
2022-08-31T04:12:10.549Z,1014.17
2022-08-31T04:13:10.889Z,1014.17
2022-08-31T04:14:11.200Z,1014.18
2022-08-31T04:15:11.530Z,1014.19
2022-08-31T04:16:11.878Z,1014.21
2022-08-31T04:17:12.169Z,1014.19
2022-08-31T04:18:12.478Z,1014.23
2022-08-31T04:19:12.830Z,1014.21
2022-08-31T04:20:13.126Z,1014.21
2022-08-31T04:21:13.440Z,1014.21
2022-08-31T04:22:13.750Z,1014.21
2022-08-31T04:23:14.089Z,1014.20
2022-08-31T04:24:14.438Z,1014.17
2022-08-31T04:25:14.723Z,1014.16
2022-08-31T04:26:14.958Z,1014.18
2022-08-31T04:27:15.268Z,1014.13
2022-08-31T04:28:15.606Z,1014.14
2022-08-31T04:29:15.950Z,1014.09
2022-08-31T04:30:16.268Z,1014.16
2022-08-31T04:31:16.641Z,1014.11
2022-08-31T04:32:16.938Z,1014.15
2022-08-31T04:33:17.355Z,1014.19
2022-08-31T04:34:17.572Z,1014.17
2022-08-31T04:35:17.873Z,1014.21
2022-08-31T04:36:18.217Z,1014.21
2022-08-31T04:37:18.542Z,1014.20
2022-08-31T04:38:18.757Z,1014.20
2022-08-31T04:39:18.999Z,1014.17
2022-08-31T04:40:19.327Z,1014.18
2022-08-31T04:41:19.520Z,1014.16
2022-08-31T04:42:19.841Z,1014.16
2022-08-31T04:43:20.354Z,1014.13
2022-08-31T04:44:20.512Z,1014.17
2022-08-31T04:45:20.800Z,1014.20
2022-08-31T04:46:21.214Z,1014.21
2022-08-31T04:47:21.418Z,1014.19
2022-08-31T04:48:21.750Z,1014.15
2022-08-31T04:49:22.107Z,1014.23
2022-08-31T04:50:22.393Z,1014.24
2022-08-31T04:51:22.752Z,1014.22
2022-08-31T04:52:28.052Z,1014.22
2022-08-31T04:53:24.238Z,1014.20
2022-08-31T04:54:23.602Z,1014.22
2022-08-31T04:55:23.934Z,1014.24
2022-08-31T04:56:24.243Z,1014.22
2022-08-31T04:57:24.474Z,1014.22
2022-08-31T04:58:24.691Z,1014.20
2022-08-31T04:59:25.041Z,1014.26
2022-08-31T05:00:25.382Z,1014.29
2022-08-31T05:01:25.787Z,1014.25
2022-08-31T05:02:26.111Z,1014.32
2022-08-31T05:03:26.311Z,1014.31
2022-08-31T05:04:26.635Z,1014.31
2022-08-31T05:05:26.956Z,1014.34
2022-08-31T05:06:27.256Z,1014.35
2022-08-31T05:07:27.493Z,1014.38
2022-08-31T05:08:27.712Z,1014.39
2022-08-31T05:09:28.052Z,1014.40
2022-08-31T05:10:28.304Z,1014.40
2022-08-31T05:11:28.524Z,1014.39
2022-08-31T05:12:28.767Z,1014.38
2022-08-31T05:13:29.047Z,1014.37
2022-08-31T05:14:29.266Z,1014.40
2022-08-31T05:15:29.563Z,1014.39
2022-08-31T05:16:29.971Z,1014.40
2022-08-31T05:17:30.162Z,1014.34
2022-08-31T05:18:30.506Z,1014.34
2022-08-31T05:19:30.783Z,1014.33
2022-08-31T05:20:30.973Z,1014.35
2022-08-31T05:21:31.225Z,1014.35
2022-08-31T05:22:31.443Z,1014.38
2022-08-31T05:23:31.688Z,1014.36
2022-08-31T05:24:31.934Z,1014.36
2022-08-31T05:25:32.176Z,1014.33
2022-08-31T05:26:32.418Z,1014.35
2022-08-31T05:27:32.651Z,1014.36
2022-08-31T05:28:32.903Z,1014.33
2022-08-31T05:29:33.157Z,1014.34
2022-08-31T05:30:33.385Z,1014.40
2022-08-31T05:31:33.648Z,1014.38
2022-08-31T05:32:34.058Z,1014.37
2022-08-31T05:33:34.183Z,1014.38
2022-08-31T05:34:34.447Z,1014.41
2022-08-31T05:35:34.758Z,1014.42
2022-08-31T05:36:35.006Z,1014.37
2022-08-31T05:37:35.239Z,1014.40
2022-08-31T05:38:35.605Z,1014.39
2022-08-31T05:39:35.810Z,1014.39
2022-08-31T05:40:36.030Z,1014.45
2022-08-31T05:41:36.245Z,1014.41
2022-08-31T05:42:36.475Z,1014.48
2022-08-31T05:43:36.715Z,1014.46
2022-08-31T05:44:36.976Z,1014.47
2022-08-31T05:45:37.276Z,1014.39
2022-08-31T05:46:37.645Z,1014.45
2022-08-31T05:47:37.831Z,1014.38
2022-08-31T05:48:38.066Z,1014.45
2022-08-31T05:49:38.315Z,1014.41
2022-08-31T05:50:38.560Z,1014.46
2022-08-31T05:51:38.869Z,1014.44
2022-08-31T05:52:39.097Z,1014.46
2022-08-31T05:53:39.327Z,1014.47
2022-08-31T05:54:39.590Z,1014.45
2022-08-31T05:55:39.810Z,1014.46
2022-08-31T05:56:40.059Z,1014.47
2022-08-31T05:57:40.299Z,1014.44
2022-08-31T05:58:40.557Z,1014.45
2022-08-31T05:59:40.912Z,1014.48
2022-08-31T06:00:41.112Z,1014.48
2022-08-31T06:01:41.419Z,1014.50
2022-08-31T06:02:41.627Z,1014.52
2022-08-31T06:03:41.858Z,1014.54
2022-08-31T06:04:42.147Z,1014.54
2022-08-31T06:05:42.411Z,1014.55
2022-08-31T06:06:42.578Z,1014.53
2022-08-31T06:07:42.807Z,1014.57
2022-08-31T06:08:43.057Z,1014.56
2022-08-31T06:09:43.328Z,1014.51
2022-08-31T06:10:43.519Z,1014.56
2022-08-31T06:11:43.748Z,1014.57
2022-08-31T06:12:43.978Z,1014.61
2022-08-31T06:13:44.266Z,1014.51
2022-08-31T06:14:46.245Z,1014.53
2022-08-31T06:15:44.711Z,1014.54
2022-08-31T06:16:44.933Z,1014.52
2022-08-31T06:17:45.160Z,1014.54
2022-08-31T06:18:45.398Z,1014.53
2022-08-31T06:19:45.683Z,1014.51
2022-08-31T06:20:45.876Z,1014.54
2022-08-31T06:21:49.673Z,1014.59
2022-08-31T06:22:46.419Z,1014.59
2022-08-31T06:23:46.650Z,1014.56
2022-08-31T06:24:46.910Z,1014.61
2022-08-31T06:25:47.150Z,1014.59
2022-08-31T06:26:47.399Z,1014.61
2022-08-31T06:27:47.654Z,1014.60
2022-08-31T06:28:47.904Z,1014.62
2022-08-31T06:29:48.160Z,1014.57
2022-08-31T06:30:55.200Z,1014.57
2022-08-31T06:31:49.711Z,1014.58
2022-08-31T06:32:48.985Z,1014.59
2022-08-31T06:33:49.242Z,1014.62
2022-08-31T06:34:49.489Z,1014.63
2022-08-31T06:35:49.701Z,1014.58
2022-08-31T06:36:49.954Z,1014.57
2022-08-31T06:37:50.161Z,1014.60
2022-08-31T06:38:50.396Z,1014.61
2022-08-31T06:39:50.652Z,1014.66
2022-08-31T06:40:50.913Z,1014.60
2022-08-31T06:41:51.136Z,1014.58
2022-08-31T06:42:51.392Z,1014.62
2022-08-31T06:43:51.633Z,1014.58
2022-08-31T06:44:51.896Z,1014.58
2022-08-31T06:45:52.122Z,1014.58
2022-08-31T06:46:52.315Z,1014.53
2022-08-31T06:47:52.566Z,1014.53
2022-08-31T06:48:52.814Z,1014.57
2022-08-31T06:49:53.066Z,1014.57
2022-08-31T06:50:53.287Z,1014.55
2022-08-31T06:51:53.517Z,1014.62
2022-08-31T06:52:53.746Z,1014.54
2022-08-31T06:53:53.988Z,1014.61
2022-08-31T06:54:54.205Z,1014.57
2022-08-31T06:55:54.437Z,1014.58
2022-08-31T06:56:54.667Z,1014.60
2022-08-31T06:57:54.899Z,1014.58
2022-08-31T06:58:55.124Z,1014.58
2022-08-31T06:59:55.364Z,1014.60
2022-08-31T07:00:55.601Z,1014.62
2022-08-31T07:01:55.929Z,1014.65
2022-08-31T07:02:57.857Z,1014.62
2022-08-31T07:03:56.398Z,1014.62
2022-08-31T07:04:56.654Z,1014.61
2022-08-31T07:05:56.960Z,1014.70
2022-08-31T07:06:57.190Z,1014.66
2022-08-31T07:07:57.427Z,1014.67
2022-08-31T07:08:57.651Z,1014.67
2022-08-31T07:09:57.920Z,1014.71
2022-08-31T07:10:58.097Z,1014.67
2022-08-31T07:11:58.436Z,1014.69
2022-08-31T07:12:58.790Z,1014.74
2022-08-31T07:13:59.021Z,1014.71
2022-08-31T07:14:59.248Z,1014.71
2022-08-31T07:15:59.538Z,1014.69
2022-08-31T07:16:59.710Z,1014.72
2022-08-31T07:17:59.946Z,1014.70
2022-08-31T07:19:00.167Z,1014.69
2022-08-31T07:20:00.401Z,1014.70
2022-08-31T07:21:00.627Z,1014.73
2022-08-31T07:22:00.858Z,1014.73
2022-08-31T07:23:01.095Z,1014.75
2022-08-31T07:24:01.351Z,1014.77
2022-08-31T07:25:01.609Z,1014.74
2022-08-31T07:26:01.848Z,1014.66
2022-08-31T07:27:02.079Z,1014.70
2022-08-31T07:28:02.318Z,1014.63
2022-08-31T07:29:02.573Z,1014.60
2022-08-31T07:30:02.890Z,1014.64
2022-08-31T07:31:03.174Z,1014.63
2022-08-31T07:32:03.350Z,1014.66
2022-08-31T07:33:03.594Z,1014.61
2022-08-31T07:34:03.823Z,1014.62
2022-08-31T07:35:04.093Z,1014.68
2022-08-31T07:36:04.273Z,1014.67
2022-08-31T07:37:04.624Z,1014.70
2022-08-31T07:38:04.869Z,1014.70
2022-08-31T07:39:05.081Z,1014.70
2022-08-31T07:40:07.783Z,1014.72
2022-08-31T07:41:05.742Z,1014.71
2022-08-31T07:42:05.923Z,1014.75
2022-08-31T07:43:06.696Z,1014.77
2022-08-31T07:44:06.576Z,1014.74
2022-08-31T07:45:06.832Z,1014.78
2022-08-31T07:46:07.139Z,1014.78
2022-08-31T07:47:07.335Z,1014.77
2022-08-31T07:48:07.694Z,1014.77
2022-08-31T07:49:07.925Z,1014.76
2022-08-31T07:50:08.163Z,1014.82
2022-08-31T07:51:11.365Z,1014.83
2022-08-31T07:52:09.673Z,1014.82
2022-08-31T07:53:08.911Z,1014.85
2022-08-31T07:54:09.256Z,1014.82
2022-08-31T07:55:09.537Z,1014.85
2022-08-31T07:56:09.858Z,1014.92
2022-08-31T07:57:10.076Z,1014.90
2022-08-31T07:58:10.304Z,1014.89
2022-08-31T07:59:10.992Z,1014.92
2022-08-31T08:00:10.879Z,1014.95
2022-08-31T08:01:11.069Z,1014.95
2022-08-31T08:02:16.624Z,1014.94
2022-08-31T08:03:13.140Z,1014.96
2022-08-31T08:04:11.816Z,1014.91
2022-08-31T08:05:12.190Z,1014.97
2022-08-31T08:06:12.443Z,1014.95
2022-08-31T08:07:12.679Z,1014.96
2022-08-31T08:08:13.896Z,1014.94
2022-08-31T08:09:24.149Z,1014.95
2022-08-31T08:10:14.704Z,1014.99
2022-08-31T08:11:13.720Z,1015.00
2022-08-31T08:12:14.006Z,1014.97
2022-08-31T08:13:14.348Z,1014.98
2022-08-31T08:14:14.702Z,1015.02
2022-08-31T08:15:14.956Z,1015.03
2022-08-31T08:16:15.319Z,1014.98
2022-08-31T08:17:15.610Z,1015.02
2022-08-31T08:18:15.838Z,1014.98
2022-08-31T08:19:16.068Z,1015.01
2022-08-31T08:20:16.438Z,1014.99
2022-08-31T08:21:16.628Z,1015.04
2022-08-31T08:22:30.671Z,1014.98
2022-08-31T08:23:18.475Z,1014.96
2022-08-31T08:24:18.534Z,1014.97
2022-08-31T08:25:17.788Z,1015.06
2022-08-31T08:26:21.866Z,1014.97
2022-08-31T08:27:18.342Z,1014.99
2022-08-31T08:29:19.868Z,1014.99
2022-08-31T08:30:19.123Z,1015.00
2022-08-31T08:31:19.461Z,1014.98
2022-08-31T08:32:19.660Z,1014.98
2022-08-31T08:33:19.997Z,1015.02
2022-08-31T08:34:20.132Z,1015.02
2022-08-31T08:35:20.523Z,1015.06
2022-08-31T08:37:35.864Z,1015.04
2022-08-31T08:38:23.097Z,1015.04
2022-08-31T08:39:22.344Z,1015.00
2022-08-31T08:40:22.801Z,1015.05
2022-08-31T08:41:22.969Z,1015.05
2022-08-31T08:42:23.199Z,1015.10
2022-08-31T08:43:26.531Z,1015.04
2022-08-31T08:44:24.697Z,1015.13
2022-08-31T08:45:23.948Z,1015.11
2022-08-31T08:46:34.469Z,1015.13
2022-08-31T08:47:25.530Z,1015.18
2022-08-31T08:48:24.789Z,1015.14
2022-08-31T08:49:25.017Z,1015.20
2022-08-31T08:50:25.295Z,1015.15
2022-08-31T08:51:25.517Z,1015.16
2022-08-31T08:52:25.738Z,1015.12
2022-08-31T08:53:25.970Z,1015.17
2022-08-31T08:54:26.207Z,1015.19
2022-08-31T08:55:26.497Z,1015.18
2022-08-31T08:56:33.495Z,1015.20
2022-08-31T08:57:27.970Z,1015.14
2022-08-31T08:58:27.206Z,1015.19
2022-08-31T08:59:27.437Z,1015.18
2022-08-31T09:00:27.682Z,1015.20
2022-08-31T09:01:28.029Z,1015.18
2022-08-31T09:02:28.251Z,1015.17
2022-08-31T09:03:28.449Z,1015.20
2022-08-31T09:04:28.749Z,1015.20
2022-08-31T09:05:28.978Z,1015.19
2022-08-31T09:06:40.537Z,1015.17
2022-08-31T09:07:30.470Z,1015.19
2022-08-31T09:08:29.720Z,1015.17
2022-08-31T09:09:29.933Z,1015.20
2022-08-31T09:10:30.290Z,1015.22
2022-08-31T09:11:30.510Z,1015.21
2022-08-31T09:12:30.869Z,1015.19
2022-08-31T09:13:31.190Z,1015.21
2022-08-31T09:14:31.530Z,1015.22
2022-08-31T09:15:31.923Z,1015.21
2022-08-31T09:16:32.166Z,1015.26
2022-08-31T09:17:32.330Z,1015.24
2022-08-31T09:18:32.561Z,1015.29
2022-08-31T09:19:32.798Z,1015.28
2022-08-31T09:20:33.134Z,1015.19
2022-08-31T09:21:33.325Z,1015.27
2022-08-31T09:22:33.555Z,1015.22
2022-08-31T09:23:33.785Z,1015.26
2022-08-31T09:24:34.026Z,1015.21
2022-08-31T09:25:34.251Z,1015.19
2022-08-31T09:26:34.483Z,1015.23
2022-08-31T09:27:34.793Z,1015.19
2022-08-31T09:28:35.026Z,1015.22
2022-08-31T09:29:35.242Z,1015.19
2022-08-31T09:30:35.516Z,1015.20
2022-08-31T09:31:35.902Z,1015.20
2022-08-31T09:32:36.105Z,1015.19
2022-08-31T09:33:36.443Z,1015.23
2022-08-31T09:34:36.784Z,1015.24
2022-08-31T09:35:37.043Z,1015.26
2022-08-31T09:36:37.356Z,1015.22
2022-08-31T09:37:37.587Z,1015.23
2022-08-31T09:38:37.815Z,1015.23
2022-08-31T09:39:38.065Z,1015.25
2022-08-31T09:40:38.374Z,1015.27
2022-08-31T09:41:38.575Z,1015.25
2022-08-31T09:42:38.794Z,1015.26
2022-08-31T09:43:41.052Z,1015.24
2022-08-31T09:44:39.395Z,1015.26
2022-08-31T09:45:42.331Z,1015.27
2022-08-31T09:46:39.885Z,1015.27
2022-08-31T09:47:40.226Z,1015.24
2022-08-31T09:48:40.576Z,1015.23
2022-08-31T09:49:40.906Z,1015.23
2022-08-31T09:50:41.229Z,1015.26
2022-08-31T09:51:41.450Z,1015.23
2022-08-31T09:52:41.680Z,1015.20
2022-08-31T09:53:41.898Z,1015.27
2022-08-31T09:54:46.561Z,1015.25
2022-08-31T09:55:42.417Z,1015.24
2022-08-31T09:56:42.650Z,1015.25
2022-08-31T09:57:42.877Z,1015.28
2022-08-31T09:58:43.097Z,1015.30
2022-08-31T09:59:43.342Z,1015.26
2022-08-31T10:00:43.582Z,1015.30
2022-08-31T10:01:43.917Z,1015.30
2022-08-31T10:02:44.150Z,1015.27
2022-08-31T10:03:44.371Z,1015.29
2022-08-31T10:04:44.779Z,1015.30
2022-08-31T10:05:44.991Z,1015.29
2022-08-31T10:06:45.191Z,1015.26
2022-08-31T10:07:45.493Z,1015.26
2022-08-31T10:08:45.723Z,1015.25
2022-08-31T10:09:45.948Z,1015.24
2022-08-31T10:10:46.199Z,1015.27
2022-08-31T10:11:46.424Z,1015.23
2022-08-31T10:12:46.653Z,1015.24
2022-08-31T10:13:46.869Z,1015.24
2022-08-31T10:14:47.223Z,1015.22
2022-08-31T10:15:47.513Z,1015.21
2022-08-31T10:16:47.685Z,1015.23
2022-08-31T10:17:47.914Z,1015.24
2022-08-31T10:18:48.154Z,1015.23
2022-08-31T10:19:48.371Z,1015.25
2022-08-31T10:20:48.730Z,1015.24
2022-08-31T10:21:48.967Z,1015.25
2022-08-31T10:22:49.195Z,1015.20
2022-08-31T10:23:49.411Z,1015.19
2022-08-31T10:24:49.775Z,1015.28
2022-08-31T10:25:50.025Z,1015.30
2022-08-31T10:26:50.321Z,1015.32
2022-08-31T10:27:50.685Z,1015.23
2022-08-31T10:28:50.946Z,1015.25
2022-08-31T10:29:51.232Z,1015.30
2022-08-31T10:30:51.521Z,1015.29
2022-08-31T10:31:51.690Z,1015.21
2022-08-31T10:32:52.053Z,1015.27
2022-08-31T10:33:52.288Z,1015.24
2022-08-31T10:34:52.492Z,1015.24
2022-08-31T10:35:52.853Z,1015.26
2022-08-31T10:36:53.073Z,1015.25
2022-08-31T10:37:53.427Z,1015.30
2022-08-31T10:38:53.644Z,1015.29
2022-08-31T10:39:53.877Z,1015.26
2022-08-31T10:40:54.269Z,1015.27
2022-08-31T10:41:54.448Z,1015.24
2022-08-31T10:42:54.687Z,1015.21
2022-08-31T10:43:54.895Z,1015.21
2022-08-31T10:44:55.248Z,1015.20
2022-08-31T10:45:55.518Z,1015.22
2022-08-31T10:46:55.725Z,1015.21
2022-08-31T10:47:55.960Z,1015.18
2022-08-31T10:48:56.188Z,1015.21
2022-08-31T10:49:56.416Z,1015.19
2022-08-31T10:50:56.749Z,1015.15
2022-08-31T10:51:57.047Z,1015.17
2022-08-31T10:53:01.843Z,1015.14
2022-08-31T10:53:58.676Z,1015.20
2022-08-31T10:54:57.917Z,1015.16
2022-08-31T10:55:58.210Z,1015.13
2022-08-31T10:56:58.387Z,1015.22
2022-08-31T10:57:58.641Z,1015.19
2022-08-31T10:58:58.856Z,1015.17
2022-08-31T10:59:59.101Z,1015.14
2022-08-31T11:00:59.385Z,1015.20
2022-08-31T11:01:59.548Z,1015.17
2022-08-31T11:02:59.887Z,1015.16
2022-08-31T11:04:00.356Z,1015.13
2022-08-31T11:05:00.640Z,1015.12
2022-08-31T11:06:00.820Z,1015.14
2022-08-31T11:07:01.038Z,1015.17
2022-08-31T11:08:01.268Z,1015.14
2022-08-31T11:09:01.512Z,1015.13
2022-08-31T11:10:01.744Z,1015.16
2022-08-31T11:11:01.992Z,1015.11
2022-08-31T11:12:02.289Z,1015.09
2022-08-31T11:13:02.630Z,1015.09
2022-08-31T11:14:02.969Z,1015.13
2022-08-31T11:15:03.301Z,1015.16
2022-08-31T11:16:03.713Z,1015.14
2022-08-31T11:17:04.004Z,1015.11
2022-08-31T11:18:04.240Z,1015.10
2022-08-31T11:19:08.870Z,1015.16
2022-08-31T11:20:04.720Z,1015.17
2022-08-31T11:21:04.981Z,1015.13
2022-08-31T11:22:05.280Z,1015.16
2022-08-31T11:23:05.646Z,1015.11
2022-08-31T11:24:05.864Z,1015.15
2022-08-31T11:25:06.081Z,1015.16
2022-08-31T11:26:06.475Z,1015.16
2022-08-31T11:27:06.693Z,1015.11
2022-08-31T11:28:06.992Z,1015.11
2022-08-31T11:29:07.332Z,1015.11
2022-08-31T11:30:07.575Z,1015.13
2022-08-31T11:31:07.858Z,1015.13
2022-08-31T11:32:08.102Z,1015.10
2022-08-31T11:33:08.444Z,1015.07
2022-08-31T11:34:17.181Z,1015.08
2022-08-31T11:35:10.111Z,1015.05
2022-08-31T11:36:09.364Z,1015.04
2022-08-31T11:37:09.687Z,1014.98
2022-08-31T11:38:09.916Z,1014.98
2022-08-31T11:39:10.177Z,1014.97
2022-08-31T11:40:10.463Z,1014.97
2022-08-31T11:41:10.671Z,1015.00
2022-08-31T11:42:10.855Z,1015.02
2022-08-31T11:43:11.218Z,1015.05
2022-08-31T11:44:11.468Z,1015.01
2022-08-31T11:45:14.104Z,1014.99
2022-08-31T11:46:12.838Z,1014.99
2022-08-31T11:47:12.416Z,1014.93
2022-08-31T11:48:12.654Z,1014.94
2022-08-31T11:49:12.986Z,1014.93
2022-08-31T11:50:13.219Z,1014.98
2022-08-31T11:51:13.446Z,1014.91
2022-08-31T11:52:13.679Z,1014.92
2022-08-31T11:53:13.910Z,1014.90
2022-08-31T11:54:14.131Z,1014.87
2022-08-31T11:55:14.468Z,1014.86
2022-08-31T11:56:14.848Z,1014.86
2022-08-31T11:57:15.150Z,1014.87
2022-08-31T11:58:20.692Z,1014.81
2022-08-31T11:59:16.659Z,1014.81
2022-08-31T12:00:15.887Z,1014.82
2022-08-31T12:01:16.267Z,1014.82
2022-08-31T12:02:16.609Z,1014.79
2022-08-31T12:03:16.828Z,1014.81
2022-08-31T12:04:21.744Z,1014.80
2022-08-31T12:05:18.406Z,1014.81
2022-08-31T12:06:17.662Z,1014.81
2022-08-31T12:07:17.859Z,1014.79
2022-08-31T12:08:18.069Z,1014.81
2022-08-31T12:09:18.312Z,1014.76
2022-08-31T12:10:18.529Z,1014.76
2022-08-31T12:11:18.891Z,1014.72